createdAt,value
2019-03-05T00:01:49.431Z,7.48
2019-03-05T00:06:54.504Z,7.41
2019-03-05T00:11:59.500Z,7.37
2019-03-05T00:17:04.496Z,7.35
2019-03-05T00:22:10.945Z,7.34
2019-03-05T00:27:16.296Z,7.24
2019-03-05T00:32:21.308Z,7.32
2019-03-05T00:37:41.407Z,7.26
2019-03-05T00:43:10.711Z,7.26
2019-03-05T00:48:56.004Z,7.21
2019-03-05T00:54:40.843Z,7.18
2019-03-05T01:00:23.581Z,7.18
2019-03-05T01:05:52.921Z,7.21
2019-03-05T01:10:57.909Z,7.17
2019-03-05T01:16:04.678Z,7.18
2019-03-05T01:21:09.669Z,7.15
2019-03-05T01:26:14.668Z,7.18
2019-03-05T01:31:53.949Z,7.15
2019-03-05T01:37:00.728Z,7.09
2019-03-05T01:42:07.333Z,7.05
2019-03-05T01:47:12.349Z,7.04
2019-03-05T01:57:36.497Z,7.15
2019-03-05T02:02:41.523Z,7.06
2019-03-05T02:07:46.502Z,7.10
2019-03-05T02:12:51.494Z,7.10
2019-03-05T02:17:56.613Z,7.15
2019-03-05T02:23:26.507Z,7.21
2019-03-05T02:29:06.893Z,7.32
2019-03-05T02:34:24.243Z,7.42
2019-03-05T02:40:06.483Z,7.50
2019-03-05T02:45:43.681Z,7.52
2019-03-05T02:51:15.285Z,7.62
2019-03-05T02:56:58.023Z,7.71
2019-03-05T03:02:10.226Z,7.73
2019-03-05T03:07:15.328Z,7.72
2019-03-05T03:12:20.332Z,7.77
2019-03-05T03:17:25.378Z,7.69
2019-03-05T03:22:30.361Z,7.63
2019-03-05T03:27:35.314Z,7.66
2019-03-05T03:32:42.387Z,7.68
2019-03-05T03:37:47.348Z,7.59
2019-03-05T03:42:52.896Z,7.58
2019-03-05T03:47:58.769Z,7.58
2019-03-05T03:53:04.180Z,7.58
2019-03-05T03:58:09.605Z,7.59
2019-03-05T04:03:14.887Z,7.55
2019-03-05T04:08:19.932Z,7.58
2019-03-05T04:13:24.905Z,7.59
2019-03-05T04:18:30.282Z,7.55
2019-03-05T04:23:35.274Z,7.62
2019-03-05T04:28:40.245Z,7.65
2019-03-05T04:33:45.300Z,7.61
2019-03-05T04:38:50.376Z,7.72
2019-03-05T04:43:55.366Z,7.61
2019-03-05T04:49:26.651Z,7.55
2019-03-05T04:54:31.665Z,7.62
2019-03-05T04:59:36.739Z,7.64
2019-03-05T05:04:41.840Z,7.62
2019-03-05T05:09:46.844Z,7.55
2019-03-05T05:14:52.899Z,7.63
2019-03-05T05:19:57.885Z,7.58
2019-03-05T05:25:02.921Z,7.63
2019-03-05T05:30:13.498Z,7.49
2019-03-05T05:35:18.566Z,7.51
2019-03-05T05:40:31.479Z,7.56
2019-03-05T05:45:42.630Z,7.53
2019-03-05T05:50:47.835Z,7.64
2019-03-05T05:55:53.118Z,7.54
2019-03-05T06:01:00.491Z,7.57
2019-03-05T06:06:05.820Z,7.53
2019-03-05T06:11:11.166Z,7.45
2019-03-05T06:16:16.165Z,7.51
2019-03-05T06:21:21.197Z,7.48
2019-03-05T06:26:26.212Z,7.39
2019-03-05T06:31:31.328Z,7.41
2019-03-05T06:36:53.749Z,7.39
2019-03-05T06:41:58.757Z,7.47
2019-03-05T06:47:04.527Z,7.46
2019-03-05T06:52:11.700Z,7.44
2019-03-05T06:57:16.333Z,7.47
2019-03-05T07:02:22.200Z,7.53
2019-03-05T07:07:31.759Z,7.41
2019-03-05T07:12:54.378Z,7.35
2019-03-05T07:18:04.674Z,7.35
2019-03-05T07:23:18.677Z,7.27
2019-03-05T07:28:23.843Z,7.28
2019-03-05T07:33:28.832Z,7.30
2019-03-05T07:38:33.972Z,7.46
2019-03-05T07:43:39.043Z,7.55
2019-03-05T07:48:45.139Z,7.81
2019-03-05T07:53:50.312Z,7.74
2019-03-05T07:58:55.423Z,7.84
2019-03-05T08:04:00.719Z,7.76
2019-03-05T08:09:31.147Z,7.77
2019-03-05T08:15:01.331Z,7.93
2019-03-05T08:20:09.653Z,8.06
2019-03-05T08:25:15.247Z,8.00
2019-03-05T08:30:20.541Z,7.94
2019-03-05T08:35:25.599Z,8.01
2019-03-05T08:40:31.508Z,7.94
2019-03-05T08:45:36.555Z,8.06
2019-03-05T08:50:55.299Z,8.06
2019-03-05T08:56:00.767Z,7.87
2019-03-05T09:01:07.627Z,7.97
2019-03-05T09:06:12.909Z,8.02
2019-03-05T09:11:18.352Z,8.06
2019-03-05T09:16:23.663Z,8.16
2019-03-05T09:21:29.973Z,8.18
2019-03-05T09:26:36.152Z,8.30
2019-03-05T09:31:41.655Z,8.37
2019-03-05T09:36:51.086Z,8.48
2019-03-05T09:41:53.768Z,8.46
2019-03-05T09:46:58.908Z,8.47
2019-03-05T09:52:03.978Z,8.61
2019-03-05T09:57:09.055Z,8.81
2019-03-05T10:02:14.291Z,8.85
2019-03-05T10:07:19.508Z,8.83
2019-03-05T10:12:24.819Z,8.86
2019-03-05T10:17:37.584Z,9.04
2019-03-05T10:22:37.424Z,9.18
2019-03-05T10:27:42.776Z,9.28
2019-03-05T10:32:49.303Z,9.21
2019-03-05T10:37:56.175Z,9.20
2019-03-05T10:43:08.418Z,9.14
2019-03-05T10:48:09.756Z,9.05
2019-03-05T10:53:15.470Z,9.00
2019-03-05T10:58:21.225Z,9.02
2019-03-05T11:03:27.792Z,8.95
2019-03-05T11:08:32.985Z,8.76
2019-03-05T11:13:39.543Z,8.64
2019-03-05T11:18:45.158Z,8.67
2019-03-05T11:23:50.247Z,8.69
2019-03-05T11:28:57.041Z,8.66
2019-03-05T11:34:02.234Z,8.53
2019-03-05T11:39:07.819Z,8.67
2019-03-05T11:44:14.726Z,8.66
2019-03-05T11:49:20.263Z,8.39
2019-03-05T11:54:25.385Z,8.34
2019-03-05T11:59:30.664Z,8.28
2019-03-05T12:04:35.816Z,8.21
2019-03-05T12:09:41.619Z,8.33
2019-03-05T12:14:46.987Z,8.26
2019-03-05T12:19:52.166Z,8.36
2019-03-05T12:24:57.701Z,8.33
2019-03-05T12:30:04.655Z,8.17
2019-03-05T12:35:11.821Z,8.27
2019-03-05T12:40:17.382Z,8.24
2019-03-05T12:45:22.935Z,8.34
2019-03-05T12:50:28.486Z,8.44
2019-03-05T12:55:33.897Z,8.43
2019-03-05T13:00:38.946Z,8.53
2019-03-05T13:05:44.490Z,8.74
2019-03-05T13:10:49.885Z,8.56
2019-03-05T13:15:56.494Z,8.63
2019-03-05T13:21:03.506Z,10.38
2019-03-05T13:26:09.432Z,12.15
2019-03-05T13:31:14.979Z,12.29
2019-03-05T13:36:20.597Z,12.13
2019-03-05T13:41:25.927Z,12.20
2019-03-05T13:46:31.216Z,11.18
2019-03-05T13:52:12.970Z,11.45
2019-03-05T13:57:51.409Z,11.65
2019-03-05T14:03:03.560Z,11.97
2019-03-05T14:08:53.602Z,11.84
2019-03-05T14:13:58.703Z,11.98
2019-03-05T14:19:03.993Z,12.14
2019-03-05T14:24:09.222Z,12.07
2019-03-05T14:29:14.568Z,11.24
2019-03-05T14:34:19.662Z,11.13
2019-03-05T14:39:32.008Z,10.98
2019-03-05T14:44:40.109Z,10.47
2019-03-05T14:49:44.766Z,9.98
2019-03-05T14:54:49.904Z,9.88
2019-03-05T14:59:55.085Z,9.59
2019-03-05T15:05:00.439Z,8.91
2019-03-05T15:10:08.661Z,8.79
2019-03-05T15:15:26.077Z,8.83
2019-03-05T15:20:33.270Z,8.83
2019-03-05T15:25:38.943Z,8.76
2019-03-05T15:30:44.087Z,8.85
2019-03-05T15:35:49.471Z,8.72
2019-03-05T15:40:54.886Z,8.67
2019-03-05T15:46:00.429Z,8.59
2019-03-05T15:51:06.264Z,8.61
2019-03-05T15:56:12.063Z,8.82
2019-03-05T16:01:22.362Z,8.84
2019-03-05T16:06:24.814Z,8.80
2019-03-05T16:11:33.633Z,8.72
2019-03-05T16:16:36.796Z,8.68
2019-03-05T16:21:44.132Z,8.58
2019-03-05T16:26:51.172Z,8.55
2019-03-05T16:32:23.100Z,8.57
2019-03-05T16:37:44.654Z,8.50
2019-03-05T16:43:07.396Z,8.53
2019-03-05T16:48:30.057Z,8.53
2019-03-05T16:53:53.157Z,8.29
2019-03-05T16:59:20.816Z,8.25
2019-03-05T17:04:54.410Z,8.27
2019-03-05T17:10:36.867Z,8.24
2019-03-05T17:15:42.199Z,8.17
2019-03-05T17:20:47.485Z,8.01
2019-03-05T17:25:53.798Z,8.03
2019-03-05T17:31:01.622Z,7.89
2019-03-05T17:36:08.827Z,7.84
2019-03-05T17:41:14.814Z,7.96
2019-03-05T17:46:20.527Z,7.81
2019-03-05T17:51:26.678Z,7.84
2019-03-05T17:56:32.171Z,7.74
2019-03-05T18:01:37.600Z,7.61
2019-03-05T18:06:43.218Z,7.52
2019-03-05T18:11:48.556Z,7.52
2019-03-05T18:16:53.874Z,7.48
2019-03-05T18:22:01.689Z,7.55
2019-03-05T18:27:08.232Z,7.53
2019-03-05T18:32:13.788Z,7.48
2019-03-05T18:37:19.360Z,7.55
2019-03-05T18:42:24.679Z,7.54
2019-03-05T18:47:30.091Z,7.40
2019-03-05T18:52:35.436Z,7.47
2019-03-05T18:57:40.822Z,7.36
2019-03-05T19:02:46.424Z,7.22
2019-03-05T19:07:51.610Z,7.18
2019-03-05T19:12:57.602Z,7.07
2019-03-05T19:18:03.246Z,7.15
2019-03-05T19:23:08.398Z,7.09
2019-03-05T19:28:13.630Z,7.09
2019-03-05T19:33:20.307Z,7.15
2019-03-05T19:38:25.658Z,7.13
2019-03-05T19:43:30.915Z,7.07
2019-03-05T19:48:36.290Z,6.88
2019-03-05T19:53:41.570Z,6.83
2019-03-05T19:58:47.432Z,6.67
2019-03-05T20:03:53.141Z,6.66
2019-03-05T20:08:58.516Z,6.51
2019-03-05T20:14:03.712Z,6.39
2019-03-05T20:19:08.734Z,6.42
2019-03-05T20:24:14.777Z,6.34
2019-03-05T20:29:20.990Z,6.29
2019-03-05T20:34:26.254Z,6.32
2019-03-05T20:39:32.138Z,6.24
2019-03-05T20:44:37.558Z,6.20
2019-03-05T20:49:42.962Z,6.19
2019-03-05T20:54:48.149Z,6.15
2019-03-05T20:59:54.274Z,6.02
2019-03-05T21:04:59.435Z,6.00
2019-03-05T21:10:05.146Z,5.96
2019-03-05T21:15:11.476Z,5.94
2019-03-05T21:20:17.286Z,5.88
2019-03-05T21:25:22.298Z,5.79
2019-03-05T21:30:27.507Z,5.70
2019-03-05T21:35:32.721Z,5.67
2019-03-05T21:40:37.841Z,5.61
2019-03-05T21:45:44.497Z,5.57
2019-03-05T21:50:54.902Z,5.57
2019-03-05T21:55:59.988Z,5.56
2019-03-05T22:01:05.174Z,5.46
2019-03-05T22:06:10.221Z,5.34
2019-03-05T22:11:15.250Z,5.37
2019-03-05T22:16:20.312Z,5.37
2019-03-05T22:21:25.740Z,5.30
2019-03-05T22:26:31.802Z,5.24
2019-03-05T22:31:36.934Z,5.24
2019-03-05T22:36:42.227Z,5.14
2019-03-05T22:41:47.240Z,5.17
2019-03-05T22:46:52.574Z,5.27
2019-03-05T22:51:57.540Z,5.15
2019-03-05T22:57:02.570Z,5.11
2019-03-05T23:02:08.054Z,5.08
2019-03-05T23:07:14.488Z,5.06
2019-03-05T23:12:19.647Z,4.99
2019-03-05T23:17:24.782Z,4.87
2019-03-05T23:22:30.911Z,4.93
2019-03-05T23:27:36.344Z,4.88
2019-03-05T23:32:41.324Z,4.92
2019-03-05T23:37:47.548Z,4.96
2019-03-05T23:42:52.576Z,4.94
2019-03-05T23:47:57.876Z,5.06
2019-03-05T23:53:02.932Z,5.18
2019-03-05T23:58:08.119Z,5.23
